createdAt,value
2017-06-05T00:01:40.295Z,101112.79
2017-06-05T00:04:13.616Z,101115.19
2017-06-05T00:06:46.052Z,101121.91
2017-06-05T00:09:18.702Z,101122.17
2017-06-05T00:11:50.792Z,101123.27
2017-06-05T00:14:23.641Z,101127.50
2017-06-05T00:16:55.696Z,101126.78
2017-06-05T00:19:28.138Z,101121.30
2017-06-05T00:22:01.137Z,101118.80
2017-06-05T00:24:32.937Z,101121.64
2017-06-05T00:27:05.197Z,101129.63
2017-06-05T00:29:37.561Z,101124.00
2017-06-05T00:32:10.020Z,101127.56
2017-06-05T00:34:42.335Z,101128.96
2017-06-05T00:37:14.648Z,101131.35
2017-06-05T00:39:46.899Z,101130.64
2017-06-05T00:42:19.471Z,101131.67
2017-06-05T00:44:51.855Z,101122.36
2017-06-05T00:47:24.325Z,101126.77
2017-06-05T00:49:56.981Z,101129.26
2017-06-05T00:52:29.125Z,101134.05
2017-06-05T00:55:01.737Z,101122.52
2017-06-05T00:57:34.133Z,101124.00
2017-06-05T01:00:06.506Z,101123.38
2017-06-05T01:02:38.917Z,101118.17
2017-06-05T01:05:11.387Z,101123.64
2017-06-05T01:07:43.833Z,101118.29
2017-06-05T01:10:16.334Z,101126.00
2017-06-05T01:12:48.601Z,101128.31
2017-06-05T01:15:21.276Z,101117.95
2017-06-05T01:17:53.437Z,101118.33
2017-06-05T01:20:25.784Z,101120.66
2017-06-05T01:22:58.171Z,101118.98
2017-06-05T01:25:30.713Z,101116.83
2017-06-05T01:28:03.133Z,101112.60
2017-06-05T01:30:35.520Z,101115.12
2017-06-05T01:33:08.304Z,101114.90
2017-06-05T01:35:40.449Z,101118.32
2017-06-05T01:38:13.914Z,101120.36
2017-06-05T01:40:46.244Z,101117.44
2017-06-05T01:43:18.978Z,101116.44
2017-06-05T01:45:51.004Z,101127.28
2017-06-05T01:48:23.388Z,101126.03
2017-06-05T01:50:55.717Z,101128.22
2017-06-05T01:53:28.034Z,101124.93
2017-06-05T01:56:00.768Z,101125.01
2017-06-05T01:58:32.926Z,101128.42
2017-06-05T02:01:05.378Z,101133.28
2017-06-05T02:03:37.880Z,101137.59
2017-06-05T02:06:10.180Z,101140.47
2017-06-05T02:08:42.537Z,101134.05
2017-06-05T02:11:15.288Z,101136.31
2017-06-05T02:13:47.672Z,101135.09
2017-06-05T02:16:19.751Z,101135.41
2017-06-05T02:18:52.045Z,101134.13
2017-06-05T02:21:25.533Z,101134.63
2017-06-05T02:23:57.946Z,101132.71
2017-06-05T02:26:30.568Z,101139.02
2017-06-05T02:29:02.568Z,101134.97
2017-06-05T02:31:34.956Z,101136.05
2017-06-05T02:34:07.265Z,101136.72
2017-06-05T02:36:40.689Z,101142.55
2017-06-05T02:39:13.441Z,101139.63
2017-06-05T02:41:45.782Z,101137.81
2017-06-05T02:44:18.193Z,101139.63
2017-06-05T02:46:50.236Z,101137.55
2017-06-05T02:49:22.674Z,101133.24
2017-06-05T02:51:55.166Z,101131.52
2017-06-05T02:54:27.580Z,101132.08
2017-06-05T02:57:00.033Z,101133.87
2017-06-05T02:59:33.248Z,101131.71
2017-06-05T03:02:05.968Z,101136.28
2017-06-05T03:04:38.536Z,101133.50
2017-06-05T03:07:11.019Z,101137.63
2017-06-05T03:09:43.421Z,101129.30
2017-06-05T03:12:15.892Z,101133.25
2017-06-05T03:14:48.339Z,101131.52
2017-06-05T03:17:20.831Z,101129.73
2017-06-05T03:19:53.284Z,101128.45
2017-06-05T03:22:25.803Z,101122.42
2017-06-05T03:24:58.061Z,101126.28
2017-06-05T03:27:30.781Z,101121.27
2017-06-05T03:30:03.095Z,101119.73
2017-06-05T03:32:35.408Z,101119.84
2017-06-05T03:35:07.754Z,101119.25
2017-06-05T03:37:40.126Z,101114.58
2017-06-05T03:40:12.776Z,101119.30
2017-06-05T03:42:44.792Z,101120.18
2017-06-05T03:45:17.275Z,101118.58
2017-06-05T03:47:49.541Z,101123.65
2017-06-05T03:50:22.264Z,101125.23
2017-06-05T03:52:54.337Z,101124.59
2017-06-05T03:55:27.119Z,101123.12
2017-06-05T03:57:59.245Z,101124.14
2017-06-05T04:00:31.665Z,101123.48
2017-06-05T04:03:04.104Z,101127.23
2017-06-05T04:05:36.488Z,101118.64
2017-06-05T04:08:09.245Z,101119.97
2017-06-05T04:10:41.398Z,101117.84
2017-06-05T04:13:14.129Z,101116.55
2017-06-05T04:15:46.596Z,101121.19
2017-06-05T04:18:18.725Z,101120.02
2017-06-05T04:20:51.075Z,101113.84
2017-06-05T04:23:23.672Z,101108.99
2017-06-05T04:25:56.022Z,101110.01
2017-06-05T04:28:28.548Z,101112.66
2017-06-05T04:31:00.933Z,101108.05
2017-06-05T04:33:33.269Z,101108.05
2017-06-05T04:36:05.613Z,101110.16
2017-06-05T04:38:38.053Z,101107.74
2017-06-05T04:41:10.434Z,101104.79
2017-06-05T04:43:43.745Z,101112.42
2017-06-05T04:46:16.236Z,101109.14
2017-06-05T04:48:48.689Z,101111.55
2017-06-05T04:51:21.033Z,101107.61
2017-06-05T04:53:53.393Z,101103.95
2017-06-05T04:56:25.827Z,101101.13
2017-06-05T04:58:58.210Z,101101.29
2017-06-05T05:01:30.593Z,101105.36
2017-06-05T05:04:03.029Z,101114.25
2017-06-05T05:06:35.420Z,101107.18
2017-06-05T05:09:07.921Z,101107.16
2017-06-05T05:11:40.275Z,101114.59
2017-06-05T05:14:12.669Z,101106.03
2017-06-05T05:16:45.071Z,101105.13
2017-06-05T05:19:24.348Z,101113.56
2017-06-05T05:21:56.889Z,101106.67
2017-06-05T05:24:29.344Z,101103.12
2017-06-05T05:27:01.797Z,101098.54
2017-06-05T05:29:34.169Z,101109.70
2017-06-05T05:32:07.848Z,101111.97
2017-06-05T05:34:40.010Z,101109.17
2017-06-05T05:37:12.304Z,101104.55
2017-06-05T05:39:44.584Z,101105.32
2017-06-05T05:42:16.933Z,101107.48
2017-06-05T05:44:49.608Z,101100.75
2017-06-05T05:47:21.981Z,101091.31
2017-06-05T05:49:54.222Z,101093.77
2017-06-05T05:52:26.537Z,101090.98
2017-06-05T05:54:59.178Z,101089.29
2017-06-05T05:57:31.474Z,101087.66
2017-06-05T06:00:03.832Z,101089.34
2017-06-05T06:02:36.245Z,101090.56
2017-06-05T06:05:09.779Z,101085.60
2017-06-05T06:07:42.201Z,101084.93
2017-06-05T06:10:14.674Z,101091.16
2017-06-05T06:12:47.105Z,101088.91
2017-06-05T06:15:19.491Z,101087.58
2017-06-05T06:17:51.872Z,101092.55
2017-06-05T06:20:24.431Z,101087.08
2017-06-05T06:22:57.157Z,101090.78
2017-06-05T06:25:29.458Z,101090.56
2017-06-05T06:28:01.774Z,101097.99
2017-06-05T06:30:34.315Z,101099.06
2017-06-05T06:33:06.713Z,101090.73
2017-06-05T06:35:39.249Z,101094.74
2017-06-05T06:38:11.710Z,101096.09
2017-06-05T06:40:44.300Z,101095.77
2017-06-05T06:43:16.672Z,101092.08
2017-06-05T06:45:49.282Z,101094.55
2017-06-05T06:48:21.597Z,101097.84
2017-06-05T06:50:54.033Z,101099.33
2017-06-05T06:53:26.406Z,101104.30
2017-06-05T06:55:58.824Z,101099.31
2017-06-05T06:58:31.317Z,101095.88
2017-06-05T07:01:03.744Z,101093.38
2017-06-05T07:03:36.144Z,101100.15
2017-06-05T07:06:08.943Z,101100.28
2017-06-05T07:08:41.132Z,101097.97
2017-06-05T07:11:13.289Z,101099.90
2017-06-05T07:13:45.660Z,101087.03
2017-06-05T07:16:18.088Z,101087.44
2017-06-05T07:18:50.393Z,101083.25
2017-06-05T07:21:22.793Z,101093.73
2017-06-05T07:23:55.301Z,101088.35
2017-06-05T07:26:28.024Z,101088.84
2017-06-05T07:29:00.039Z,101077.59
2017-06-05T07:31:32.800Z,101080.50
2017-06-05T07:34:04.958Z,101078.98
2017-06-05T07:36:37.417Z,101072.54
2017-06-05T07:39:09.751Z,101085.13
2017-06-05T07:41:42.241Z,101072.34
2017-06-05T07:44:14.699Z,101077.45
2017-06-05T07:46:47.004Z,101082.03
2017-06-05T07:49:19.212Z,101076.45
2017-06-05T07:51:51.982Z,101076.36
2017-06-05T07:54:24.061Z,101084.37
2017-06-05T07:56:56.540Z,101074.91
2017-06-05T07:59:28.905Z,101084.25
2017-06-05T08:02:01.408Z,101079.11
2017-06-05T08:04:33.845Z,101074.76
2017-06-05T08:07:06.633Z,101076.19
2017-06-05T08:09:38.732Z,101071.24
2017-06-05T08:12:11.457Z,101067.45
2017-06-05T08:14:43.436Z,101069.39
2017-06-05T08:17:15.840Z,101062.83
2017-06-05T08:19:48.393Z,101064.11
2017-06-05T08:22:21.274Z,101062.77
2017-06-05T08:24:53.281Z,101054.33
2017-06-05T08:27:25.645Z,101058.51
2017-06-05T08:29:58.118Z,101059.67
2017-06-05T08:32:30.680Z,101053.84
2017-06-05T08:35:03.439Z,101054.09
2017-06-05T08:37:35.557Z,101056.58
2017-06-05T08:40:08.381Z,101056.07
2017-06-05T08:42:40.368Z,101046.58
2017-06-05T08:45:12.890Z,101037.78
2017-06-05T08:47:45.257Z,101046.63
2017-06-05T08:50:17.626Z,101036.73
2017-06-05T08:52:49.980Z,101026.33
2017-06-05T08:55:22.456Z,101031.16
2017-06-05T08:57:55.089Z,101029.44
2017-06-05T09:00:27.580Z,101034.56
2017-06-05T09:03:00.192Z,101029.87
2017-06-05T09:05:32.729Z,101018.55
2017-06-05T09:08:05.333Z,101018.28
2017-06-05T09:10:38.453Z,101004.52
2017-06-05T09:13:11.345Z,101010.13
2017-06-05T09:15:43.789Z,101010.37
2017-06-05T09:18:16.203Z,101003.41
2017-06-05T09:20:48.567Z,101000.81
2017-06-05T09:23:21.064Z,100988.52
2017-06-05T09:25:53.200Z,100989.73
2017-06-05T09:28:25.021Z,100987.42
2017-06-05T09:30:57.621Z,100986.67
2017-06-05T09:33:30.795Z,100984.83
2017-06-05T09:36:02.820Z,100983.02
2017-06-05T09:38:35.337Z,100977.07
2017-06-05T09:41:07.848Z,100977.02
2017-06-05T09:43:40.349Z,100973.53
2017-06-05T09:46:13.476Z,100986.81
2017-06-05T09:48:46.044Z,100982.33
2017-06-05T09:51:18.369Z,100981.11
2017-06-05T09:53:50.931Z,100974.45
2017-06-05T09:56:23.416Z,100973.30
2017-06-05T09:58:56.037Z,100974.13
2017-06-05T10:01:28.644Z,100969.80
2017-06-05T10:04:00.862Z,100966.97
2017-06-05T10:06:33.298Z,100965.25
2017-06-05T10:09:05.693Z,100967.30
2017-06-05T10:11:38.077Z,100960.97
2017-06-05T10:14:10.463Z,100965.38
2017-06-05T10:16:42.957Z,100957.42
2017-06-05T10:19:15.455Z,100952.02
2017-06-05T10:21:47.757Z,100955.79
2017-06-05T10:24:20.371Z,100949.37
2017-06-05T10:26:52.862Z,100941.34
2017-06-05T10:29:25.313Z,100939.64
2017-06-05T10:31:57.777Z,100936.09
2017-06-05T10:34:30.296Z,100936.02
2017-06-05T10:37:09.713Z,100927.68
2017-06-05T10:39:42.234Z,100923.66
2017-06-05T10:42:14.681Z,100928.02
2017-06-05T10:44:47.151Z,100924.69
2017-06-05T10:47:19.605Z,100888.86
2017-06-05T10:49:51.980Z,100923.96
2017-06-05T10:52:24.334Z,100919.45
2017-06-05T10:54:56.844Z,100910.57
2017-06-05T10:57:29.461Z,100909.96
2017-06-05T11:00:01.661Z,100910.69
2017-06-05T11:02:34.028Z,100905.27
2017-06-05T11:05:06.308Z,100907.81
2017-06-05T11:07:38.816Z,100912.29
2017-06-05T11:10:11.225Z,100899.24
2017-06-05T11:12:43.805Z,100892.43
2017-06-05T11:15:16.188Z,100901.35
2017-06-05T11:17:48.580Z,100890.61
2017-06-05T11:20:20.944Z,100885.83
2017-06-05T11:22:53.351Z,100880.77
2017-06-05T11:25:25.687Z,100885.95
2017-06-05T11:27:58.148Z,100882.95
2017-06-05T11:30:30.476Z,100883.00
2017-06-05T11:33:03.034Z,100879.92
2017-06-05T11:35:35.404Z,100872.08
2017-06-05T11:38:08.163Z,100876.30
2017-06-05T11:40:40.526Z,100868.45
2017-06-05T11:43:13.040Z,100867.37
2017-06-05T11:45:45.350Z,100873.29
2017-06-05T11:48:17.909Z,100875.95
2017-06-05T11:50:50.341Z,100870.87
2017-06-05T11:53:22.869Z,100866.21
2017-06-05T11:56:05.393Z,100862.34
2017-06-05T11:58:37.933Z,100855.59
2017-06-05T12:01:10.301Z,100843.04
2017-06-05T12:03:42.720Z,100854.92
2017-06-05T12:06:15.141Z,100861.64
2017-06-05T12:08:47.773Z,100859.52
2017-06-05T12:11:20.304Z,100841.78
2017-06-05T12:13:52.728Z,100842.02
2017-06-05T12:16:25.055Z,100841.63
2017-06-05T12:18:57.576Z,100840.77
2017-06-05T12:21:30.024Z,100839.05
2017-06-05T12:24:02.482Z,100834.55
2017-06-05T12:26:35.048Z,100835.67
2017-06-05T12:29:07.808Z,100836.84
2017-06-05T12:31:39.920Z,100832.59
2017-06-05T12:34:12.404Z,100840.10
2017-06-05T12:36:44.743Z,100840.20
2017-06-05T12:39:17.264Z,100831.94
2017-06-05T12:41:50.372Z,100825.62
2017-06-05T12:44:23.093Z,100820.43
2017-06-05T12:46:55.441Z,100829.32
2017-06-05T12:49:27.977Z,100821.41
2017-06-05T12:52:01.465Z,100814.30
2017-06-05T12:54:33.784Z,100815.66
2017-06-05T12:57:09.324Z,100806.97
2017-06-05T12:59:41.921Z,100804.46
2017-06-05T13:02:14.303Z,100807.36
2017-06-05T13:04:46.643Z,100806.25
2017-06-05T13:07:19.237Z,100800.69
2017-06-05T13:09:51.560Z,100804.13
2017-06-05T13:12:23.936Z,100794.74
2017-06-05T13:14:56.656Z,100795.96
2017-06-05T13:17:29.092Z,100795.30
2017-06-05T13:20:01.586Z,100781.06
2017-06-05T13:22:34.053Z,100792.08
2017-06-05T13:25:06.416Z,100778.96
2017-06-05T13:27:38.785Z,100779.81
2017-06-05T13:30:11.177Z,100782.02
2017-06-05T13:32:43.909Z,100771.83
2017-06-05T13:35:16.284Z,100768.19
2017-06-05T13:37:48.683Z,100769.83
2017-06-05T13:40:21.169Z,100766.75
2017-06-05T13:42:53.516Z,100762.95
2017-06-05T13:45:26.008Z,100770.55
2017-06-05T13:47:58.475Z,100756.80
2017-06-05T13:50:30.959Z,100749.67
2017-06-05T13:53:03.425Z,100756.45
2017-06-05T13:55:36.005Z,100747.42
2017-06-05T13:58:08.553Z,100740.98
2017-06-05T14:00:41.061Z,100750.58
2017-06-05T14:03:13.121Z,100752.64
2017-06-05T14:05:45.625Z,100746.02
2017-06-05T14:08:18.048Z,100746.20
2017-06-05T14:10:50.569Z,100741.64
2017-06-05T14:13:23.045Z,100742.41
2017-06-05T14:15:55.785Z,100737.45
2017-06-05T14:18:28.155Z,100730.46
2017-06-05T14:21:00.380Z,100732.25
2017-06-05T14:23:32.712Z,100731.86
2017-06-05T14:26:05.084Z,100729.84
2017-06-05T14:28:37.453Z,100721.92
2017-06-05T14:31:09.821Z,100714.30
2017-06-05T14:33:42.588Z,100711.75
2017-06-05T14:36:14.649Z,100702.84
2017-06-05T14:38:47.093Z,100701.03
2017-06-05T14:41:19.637Z,100693.75
2017-06-05T14:43:51.997Z,100696.30
2017-06-05T14:46:24.413Z,100697.28
2017-06-05T14:48:56.785Z,100691.88
2017-06-05T14:51:29.822Z,100686.31
2017-06-05T14:54:01.814Z,100685.56
2017-06-05T14:56:34.337Z,100684.44
2017-06-05T14:59:07.573Z,100675.62
2017-06-05T15:01:41.121Z,100670.55
2017-06-05T15:04:13.534Z,100671.47
2017-06-05T15:06:46.016Z,100662.09
2017-06-05T15:09:18.580Z,100655.91
2017-06-05T15:11:50.813Z,100654.90
2017-06-05T15:14:23.249Z,100655.78
2017-06-05T15:16:55.780Z,100655.97
2017-06-05T15:19:28.097Z,100653.47
2017-06-05T15:22:00.892Z,100651.22
2017-06-05T15:24:33.088Z,100652.59
2017-06-05T15:27:05.820Z,100648.11
2017-06-05T15:29:38.009Z,100645.20
2017-06-05T15:32:10.489Z,100642.68
2017-06-05T15:34:42.836Z,100641.23
2017-06-05T15:37:15.480Z,100641.25
2017-06-05T15:39:48.620Z,100639.59
2017-06-05T15:42:21.265Z,100639.39
2017-06-05T15:44:53.712Z,100632.10
2017-06-05T15:47:26.092Z,100630.30
2017-06-05T15:49:58.432Z,100624.28
2017-06-05T15:52:31.220Z,100619.67
2017-06-05T15:55:03.237Z,100612.34
2017-06-05T15:57:35.533Z,100612.97
2017-06-05T16:00:08.211Z,100608.15
2017-06-05T16:02:40.784Z,100602.05
2017-06-05T16:05:12.977Z,100607.80
2017-06-05T16:07:45.428Z,100608.36
2017-06-05T16:10:17.768Z,100597.49
2017-06-05T16:12:50.154Z,100599.17
2017-06-05T16:15:22.588Z,100599.03
2017-06-05T16:17:55.337Z,100590.07
2017-06-05T16:20:27.421Z,100591.23
2017-06-05T16:22:59.737Z,100589.07
2017-06-05T16:25:32.773Z,100590.94
2017-06-05T16:28:05.513Z,100586.80
2017-06-05T16:30:37.745Z,100576.54
2017-06-05T16:33:10.728Z,100570.01
2017-06-05T16:35:42.597Z,100561.69
2017-06-05T16:38:15.085Z,100566.51
2017-06-05T16:40:47.642Z,100568.87
2017-06-05T16:43:20.281Z,100564.05
2017-06-05T16:45:52.500Z,100562.37
2017-06-05T16:48:25.049Z,100558.19
2017-06-05T16:50:57.448Z,100555.36
2017-06-05T16:53:29.817Z,100556.36
2017-06-05T16:56:02.304Z,100553.92
2017-06-05T16:58:34.796Z,100558.92
2017-06-05T17:01:07.152Z,100556.23
2017-06-05T17:03:39.638Z,100548.38
2017-06-05T17:06:11.989Z,100542.45
2017-06-05T17:08:45.481Z,100542.17
2017-06-05T17:11:17.886Z,100543.91
2017-06-05T17:13:50.625Z,100538.63
2017-06-05T17:16:22.741Z,100540.36
2017-06-05T17:18:55.127Z,100536.66
2017-06-05T17:21:27.357Z,100524.38
2017-06-05T17:23:59.753Z,100527.78
2017-06-05T17:26:32.036Z,100521.97
2017-06-05T17:29:04.509Z,100514.53
2017-06-05T17:31:36.945Z,100514.58
2017-06-05T17:34:09.377Z,100510.75
2017-06-05T17:36:41.660Z,100509.68
2017-06-05T17:39:14.213Z,100500.09
2017-06-05T17:41:46.550Z,100502.59
2017-06-05T17:44:18.996Z,100504.50
2017-06-05T17:46:51.476Z,100505.33
2017-06-05T17:49:23.891Z,100501.84
2017-06-05T17:51:56.221Z,100501.11
2017-06-05T17:54:28.632Z,100498.16
2017-06-05T17:57:01.013Z,100500.05
2017-06-05T17:59:33.493Z,100501.77
2017-06-05T18:02:05.945Z,100496.46
2017-06-05T18:04:38.468Z,100490.81
2017-06-05T18:07:10.999Z,100494.94
2017-06-05T18:09:43.597Z,100485.59
2017-06-05T18:12:16.044Z,100483.52
2017-06-05T18:14:48.488Z,100479.30
2017-06-05T18:17:20.893Z,100485.31
2017-06-05T18:19:53.372Z,100481.89
2017-06-05T18:22:25.668Z,100476.61
2017-06-05T18:24:58.054Z,100475.69
2017-06-05T18:27:30.576Z,100475.81
2017-06-05T18:30:02.887Z,100475.01
2017-06-05T18:32:35.237Z,100470.64
2017-06-05T18:35:07.768Z,100475.34
2017-06-05T18:37:40.021Z,100470.21
2017-06-05T18:40:12.474Z,100472.59
2017-06-05T18:42:44.812Z,100472.53
2017-06-05T18:45:17.237Z,100469.06
2017-06-05T18:47:49.714Z,100470.32
2017-06-05T18:50:22.085Z,100472.16
2017-06-05T18:52:54.714Z,100470.32
2017-06-05T18:55:27.133Z,100467.36
2017-06-05T18:57:59.500Z,100466.57
2017-06-05T19:00:31.998Z,100470.25
2017-06-05T19:03:04.268Z,100462.75
2017-06-05T19:05:36.725Z,100469.00
2017-06-05T19:08:09.115Z,100465.43
2017-06-05T19:10:42.560Z,100461.59
2017-06-05T19:13:15.104Z,100463.95
2017-06-05T19:15:47.440Z,100461.82
2017-06-05T19:18:19.789Z,100457.30
2017-06-05T19:20:52.321Z,100454.37
2017-06-05T19:23:24.798Z,100450.48
2017-06-05T19:25:57.421Z,100457.37
2017-06-05T19:28:30.823Z,100455.52
2017-06-05T19:31:03.120Z,100462.17
2017-06-05T19:33:35.615Z,100460.03
2017-06-05T19:36:08.076Z,100456.42
2017-06-05T19:38:40.736Z,100457.02
2017-06-05T19:41:12.948Z,100453.45
2017-06-05T19:43:45.358Z,100447.03
2017-06-05T19:46:17.676Z,100458.33
2017-06-05T19:48:51.000Z,100455.36
2017-06-05T19:51:23.709Z,100451.81
2017-06-05T19:53:56.018Z,100450.91
2017-06-05T19:56:28.398Z,100451.13
2017-06-05T19:59:00.837Z,100450.41
2017-06-05T20:01:33.358Z,100450.30
2017-06-05T20:04:05.744Z,100449.64
2017-06-05T20:06:38.110Z,100455.36
2017-06-05T20:09:10.394Z,100441.34
2017-06-05T20:11:42.928Z,100447.98
2017-06-05T20:14:16.149Z,100448.67
2017-06-05T20:16:48.620Z,100444.92
2017-06-05T20:19:21.169Z,100441.86
2017-06-05T20:21:53.511Z,100447.88
2017-06-05T20:24:25.959Z,100438.92
2017-06-05T20:26:58.423Z,100431.77
2017-06-05T20:29:31.696Z,100433.48
2017-06-05T20:32:04.296Z,100432.44
2017-06-05T20:34:36.737Z,100425.02
2017-06-05T20:37:09.556Z,100424.28
2017-06-05T20:39:41.757Z,100418.66
2017-06-05T20:42:14.160Z,100408.20
2017-06-05T20:44:46.953Z,100414.11
2017-06-05T20:47:19.049Z,100406.28
2017-06-05T20:49:51.326Z,100406.36
2017-06-05T20:52:23.810Z,100396.16
2017-06-05T20:54:56.142Z,100393.75
2017-06-05T20:57:28.821Z,100389.32
2017-06-05T21:00:00.806Z,100391.10
2017-06-05T21:02:33.181Z,100384.74
2017-06-05T21:05:05.937Z,100377.80
2017-06-05T21:07:38.128Z,100383.18
2017-06-05T21:10:10.873Z,100385.90
2017-06-05T21:12:42.782Z,100382.31
2017-06-05T21:15:15.202Z,100380.87
2017-06-05T21:17:47.572Z,100380.23
2017-06-05T21:20:20.070Z,100372.22
2017-06-05T21:22:53.224Z,100379.59
2017-06-05T21:25:26.848Z,100368.82
2017-06-05T21:27:59.412Z,100361.58
2017-06-05T21:30:31.752Z,100366.37
2017-06-05T21:33:04.960Z,100358.69
2017-06-05T21:35:37.313Z,100359.29
2017-06-05T21:38:09.785Z,100356.30
2017-06-05T21:40:42.292Z,100358.13
2017-06-05T21:43:14.657Z,100351.03
2017-06-05T21:45:47.050Z,100345.20
2017-06-05T21:48:19.392Z,100343.81
2017-06-05T21:50:51.721Z,100342.50
2017-06-05T21:53:24.148Z,100344.73
2017-06-05T21:55:56.563Z,100338.43
2017-06-05T21:58:28.988Z,100329.14
2017-06-05T22:01:01.195Z,100331.89
2017-06-05T22:03:33.619Z,100326.06
2017-06-05T22:06:05.952Z,100323.44
2017-06-05T22:08:38.304Z,100322.02
2017-06-05T22:11:10.749Z,100313.11
2017-06-05T22:13:43.489Z,100308.09
2017-06-05T22:16:15.883Z,100306.37
2017-06-05T22:18:47.896Z,100307.83
2017-06-05T22:21:20.154Z,100306.14
2017-06-05T22:23:52.636Z,100296.12
2017-06-05T22:26:25.360Z,100285.88
2017-06-05T22:28:57.351Z,100290.27
2017-06-05T22:31:29.742Z,100280.94
2017-06-05T22:34:02.180Z,100281.62
2017-06-05T22:36:34.388Z,100278.84
2017-06-05T22:39:06.713Z,100276.11
2017-06-05T22:41:38.868Z,100276.20
2017-06-05T22:44:11.252Z,100269.61
2017-06-05T22:46:43.620Z,100263.45
2017-06-05T22:49:16.084Z,100270.27
2017-06-05T22:51:48.351Z,100263.94
2017-06-05T22:54:20.696Z,100264.39
2017-06-05T22:56:53.145Z,100261.03
2017-06-05T22:59:25.619Z,100257.63
2017-06-05T23:01:57.952Z,100251.68
2017-06-05T23:04:30.429Z,100250.58
2017-06-05T23:07:02.852Z,100252.16
2017-06-05T23:09:35.267Z,100257.81
2017-06-05T23:12:07.584Z,100251.69
2017-06-05T23:14:40.320Z,100244.70
2017-06-05T23:17:12.361Z,100237.09
2017-06-05T23:19:44.636Z,100227.53
2017-06-05T23:22:17.009Z,100229.98
2017-06-05T23:24:49.772Z,100233.75
2017-06-05T23:27:21.753Z,100219.38
2017-06-05T23:29:55.026Z,100215.06
2017-06-05T23:32:27.609Z,100220.73
2017-06-05T23:35:00.114Z,100216.36
2017-06-05T23:37:32.494Z,100215.95
2017-06-05T23:40:04.925Z,100211.44
2017-06-05T23:42:38.115Z,100202.28
2017-06-05T23:45:10.712Z,100196.30
2017-06-05T23:47:43.111Z,100203.23
2017-06-05T23:50:15.425Z,100196.46
2017-06-05T23:52:48.339Z,100192.17
2017-06-05T23:55:20.212Z,100195.12
2017-06-05T23:57:52.657Z,100187.09
